sensor_id;sensor_type;location;lat;lon;timestamp;temperature;humidity
33811;DHT22;20119;48.334;16.206;2022-12-17T00:00:30;0.20;99.90
33811;DHT22;20119;48.334;16.206;2022-12-17T00:03:14;0.20;99.90
33811;DHT22;20119;48.334;16.206;2022-12-17T00:05:58;0.20;99.90
33811;DHT22;20119;48.334;16.206;2022-12-17T00:08:43;0.20;99.90
33811;DHT22;20119;48.334;16.206;2022-12-17T00:11:27;0.20;99.90
33811;DHT22;20119;48.334;16.206;2022-12-17T00:16:48;0.30;99.90
33811;DHT22;20119;48.334;16.206;2022-12-17T00:19:32;0.20;99.90
33811;DHT22;20119;48.334;16.206;2022-12-17T00:24:52;0.10;99.90
33811;DHT22;20119;48.334;16.206;2022-12-17T00:27:35;0.20;99.90
33811;DHT22;20119;48.334;16.206;2022-12-17T00:30:28;0.20;99.90
33811;DHT22;20119;48.334;16.206;2022-12-17T00:41:00;0.20;99.90
33811;DHT22;20119;48.334;16.206;2022-12-17T00:43:44;0.20;99.90
33811;DHT22;20119;48.334;16.206;2022-12-17T00:46:28;0.10;99.90
33811;DHT22;20119;48.334;16.206;2022-12-17T00:49:12;0.10;99.90
33811;DHT22;20119;48.334;16.206;2022-12-17T00:51:57;0.10;99.90
33811;DHT22;20119;48.334;16.206;2022-12-17T00:57:18;0.10;99.90
33811;DHT22;20119;48.334;16.206;2022-12-17T01:00:03;0.00;99.90
33811;DHT22;20119;48.334;16.206;2022-12-17T01:02:48;0.00;99.90
33811;DHT22;20119;48.334;16.206;2022-12-17T01:05:32;0.10;99.90
33811;DHT22;20119;48.334;16.206;2022-12-17T01:08:17;0.10;99.90
33811;DHT22;20119;48.334;16.206;2022-12-17T01:11:03;0.10;99.90
33811;DHT22;20119;48.334;16.206;2022-12-17T01:13:50;0.10;99.90
33811;DHT22;20119;48.334;16.206;2022-12-17T01:16:34;0.10;99.90
33811;DHT22;20119;48.334;16.206;2022-12-17T01:19:19;0.10;99.90
33811;DHT22;20119;48.334;16.206;2022-12-17T01:37:32;0.10;99.90
33811;DHT22;20119;48.334;16.206;2022-12-17T01:40:17;0.10;99.90
33811;DHT22;20119;48.334;16.206;2022-12-17T01:43:01;0.10;99.90
33811;DHT22;20119;48.334;16.206;2022-12-17T01:45:48;0.20;99.90
33811;DHT22;20119;48.334;16.206;2022-12-17T01:48:37;0.20;99.90
33811;DHT22;20119;48.334;16.206;2022-12-17T01:51:23;0.10;99.90
33811;DHT22;20119;48.334;16.206;2022-12-17T01:54:11;0.10;99.90
33811;DHT22;20119;48.334;16.206;2022-12-17T01:57:08;0.10;99.90
33811;DHT22;20119;48.334;16.206;2022-12-17T01:59:56;0.10;99.90
33811;DHT22;20119;48.334;16.206;2022-12-17T02:02:42;0.00;99.90
33811;DHT22;20119;48.334;16.206;2022-12-17T02:05:32;0.00;99.90
33811;DHT22;20119;48.334;16.206;2022-12-17T02:08:21;0.10;99.90
33811;DHT22;20119;48.334;16.206;2022-12-17T02:11:23;0.00;99.90
33811;DHT22;20119;48.334;16.206;2022-12-17T02:14:17;0.00;99.90
33811;DHT22;20119;48.334;16.206;2022-12-17T02:17:08;0.00;99.90
33811;DHT22;20119;48.334;16.206;2022-12-17T02:20:04;0.10;99.90
33811;DHT22;20119;48.334;16.206;2022-12-17T02:22:59;0.10;99.90
33811;DHT22;20119;48.334;16.206;2022-12-17T02:25:51;0.10;99.90
33811;DHT22;20119;48.334;16.206;2022-12-17T02:28:42;0.10;99.90
33811;DHT22;20119;48.334;16.206;2022-12-17T02:31:28;0.20;99.90
33811;DHT22;20119;48.334;16.206;2022-12-17T02:34:13;0.20;99.90
33811;DHT22;20119;48.334;16.206;2022-12-17T02:36:57;0.20;99.90
33811;DHT22;20119;48.334;16.206;2022-12-17T02:39:42;0.10;99.90
33811;DHT22;20119;48.334;16.206;2022-12-17T02:42:28;0.20;99.90
33811;DHT22;20119;48.334;16.206;2022-12-17T03:31:51;0.40;99.90
33811;DHT22;20119;48.334;16.206;2022-12-17T03:34:35;0.40;99.90
33811;DHT22;20119;48.334;16.206;2022-12-17T03:37:20;0.40;99.90
33811;DHT22;20119;48.334;16.206;2022-12-17T03:40:06;0.30;99.90
33811;DHT22;20119;48.334;16.206;2022-12-17T03:42:50;0.40;99.90
33811;DHT22;20119;48.334;16.206;2022-12-17T03:45:35;0.40;99.90
33811;DHT22;20119;48.334;16.206;2022-12-17T03:48:20;0.40;99.90
33811;DHT22;20119;48.334;16.206;2022-12-17T03:51:05;0.30;99.90
33811;DHT22;20119;48.334;16.206;2022-12-17T03:53:49;0.40;99.90
33811;DHT22;20119;48.334;16.206;2022-12-17T03:56:33;0.40;99.90
33811;DHT22;20119;48.334;16.206;2022-12-17T03:59:18;0.30;99.90
33811;DHT22;20119;48.334;16.206;2022-12-17T04:02:02;0.30;99.90
33811;DHT22;20119;48.334;16.206;2022-12-17T04:04:48;0.30;99.90
33811;DHT22;20119;48.334;16.206;2022-12-17T04:07:33;0.20;99.90
33811;DHT22;20119;48.334;16.206;2022-12-17T04:10:18;0.20;99.90
33811;DHT22;20119;48.334;16.206;2022-12-17T04:13:02;0.30;99.90
33811;DHT22;20119;48.334;16.206;2022-12-17T04:15:43;0.30;99.90
33811;DHT22;20119;48.334;16.206;2022-12-17T04:18:27;0.30;99.90
33811;DHT22;20119;48.334;16.206;2022-12-17T04:21:13;0.40;99.90
33811;DHT22;20119;48.334;16.206;2022-12-17T04:23:57;0.30;99.90
33811;DHT22;20119;48.334;16.206;2022-12-17T04:26:42;0.30;99.90
33811;DHT22;20119;48.334;16.206;2022-12-17T04:29:26;0.30;99.90
33811;DHT22;20119;48.334;16.206;2022-12-17T04:32:10;0.30;99.90
33811;DHT22;20119;48.334;16.206;2022-12-17T04:37:31;0.30;99.90
33811;DHT22;20119;48.334;16.206;2022-12-17T04:40:16;0.20;99.90
33811;DHT22;20119;48.334;16.206;2022-12-17T04:48:05;0.10;99.90
33811;DHT22;20119;48.334;16.206;2022-12-17T04:50:51;0.20;99.90
33811;DHT22;20119;48.334;16.206;2022-12-17T04:53:37;0.20;99.90
33811;DHT22;20119;48.334;16.206;2022-12-17T04:56:22;0.20;99.90
33811;DHT22;20119;48.334;16.206;2022-12-17T04:59:07;0.20;99.90
33811;DHT22;20119;48.334;16.206;2022-12-17T05:07:02;0.00;99.90
33811;DHT22;20119;48.334;16.206;2022-12-17T05:09:48;0.10;99.90
33811;DHT22;20119;48.334;16.206;2022-12-17T05:20:19;0.10;99.90
33811;DHT22;20119;48.334;16.206;2022-12-17T05:23:04;0.10;99.90
33811;DHT22;20119;48.334;16.206;2022-12-17T05:25:56;0.00;99.90
33811;DHT22;20119;48.334;16.206;2022-12-17T05:28:46;0.10;99.90
33811;DHT22;20119;48.334;16.206;2022-12-17T05:31:30;0.00;99.90
33811;DHT22;20119;48.334;16.206;2022-12-17T05:34:15;-0.10;99.90
33811;DHT22;20119;48.334;16.206;2022-12-17T05:37:00;0.00;99.90
33811;DHT22;20119;48.334;16.206;2022-12-17T05:39:44;0.10;99.90
33811;DHT22;20119;48.334;16.206;2022-12-17T05:42:30;0.10;99.90
33811;DHT22;20119;48.334;16.206;2022-12-17T05:45:15;0.20;99.90
33811;DHT22;20119;48.334;16.206;2022-12-17T05:50:35;0.00;99.90
33811;DHT22;20119;48.334;16.206;2022-12-17T05:55:50;0.00;99.90
33811;DHT22;20119;48.334;16.206;2022-12-17T05:58:37;0.00;99.90
33811;DHT22;20119;48.334;16.206;2022-12-17T06:01:21;0.00;99.90
33811;DHT22;20119;48.334;16.206;2022-12-17T06:04:05;0.00;99.90
33811;DHT22;20119;48.334;16.206;2022-12-17T06:06:50;0.10;99.90
33811;DHT22;20119;48.334;16.206;2022-12-17T06:12:11;0.00;99.90
33811;DHT22;20119;48.334;16.206;2022-12-17T06:25:17;0.00;99.90
33811;DHT22;20119;48.334;16.206;2022-12-17T06:28:02;0.00;99.90
33811;DHT22;20119;48.334;16.206;2022-12-17T06:33:22;0.10;99.90
33811;DHT22;20119;48.334;16.206;2022-12-17T06:36:07;0.10;99.90
33811;DHT22;20119;48.334;16.206;2022-12-17T06:38:51;0.10;99.90
33811;DHT22;20119;48.334;16.206;2022-12-17T06:41:37;0.10;99.90
33811;DHT22;20119;48.334;16.206;2022-12-17T06:44:18;0.10;99.90
33811;DHT22;20119;48.334;16.206;2022-12-17T06:47:02;0.10;99.90
33811;DHT22;20119;48.334;16.206;2022-12-17T06:49:47;0.10;99.90
33811;DHT22;20119;48.334;16.206;2022-12-17T06:52:40;0.10;99.90
33811;DHT22;20119;48.334;16.206;2022-12-17T06:55:24;0.10;99.90
33811;DHT22;20119;48.334;16.206;2022-12-17T07:00:45;0.10;99.90
33811;DHT22;20119;48.334;16.206;2022-12-17T07:03:30;0.10;99.90
33811;DHT22;20119;48.334;16.206;2022-12-17T07:06:14;0.20;99.90
33811;DHT22;20119;48.334;16.206;2022-12-17T07:08:54;0.10;99.90
33811;DHT22;20119;48.334;16.206;2022-12-17T07:11:38;0.20;99.90
33811;DHT22;20119;48.334;16.206;2022-12-17T07:14:23;0.30;99.90
33811;DHT22;20119;48.334;16.206;2022-12-17T07:17:08;0.20;99.90
33811;DHT22;20119;48.334;16.206;2022-12-17T07:19:53;0.20;99.90
33811;DHT22;20119;48.334;16.206;2022-12-17T07:22:37;0.20;99.90
33811;DHT22;20119;48.334;16.206;2022-12-17T07:33:09;0.20;99.90
33811;DHT22;20119;48.334;16.206;2022-12-17T07:35:54;0.30;99.90
33811;DHT22;20119;48.334;16.206;2022-12-17T07:41:15;0.30;99.90
33811;DHT22;20119;48.334;16.206;2022-12-17T07:44:00;0.40;99.90
33811;DHT22;20119;48.334;16.206;2022-12-17T07:46:44;0.40;99.90
33811;DHT22;20119;48.334;16.206;2022-12-17T07:49:30;0.30;99.90
33811;DHT22;20119;48.334;16.206;2022-12-17T07:52:25;0.40;99.90
33811;DHT22;20119;48.334;16.206;2022-12-17T07:55:10;0.40;99.90
33811;DHT22;20119;48.334;16.206;2022-12-17T08:00:29;0.40;99.90
33811;DHT22;20119;48.334;16.206;2022-12-17T08:03:13;0.40;99.90
33811;DHT22;20119;48.334;16.206;2022-12-17T08:05:59;0.40;99.90
33811;DHT22;20119;48.334;16.206;2022-12-17T08:08:43;0.50;99.90
33811;DHT22;20119;48.334;16.206;2022-12-17T08:14:03;0.50;99.90
33811;DHT22;20119;48.334;16.206;2022-12-17T08:16:47;0.60;99.90
33811;DHT22;20119;48.334;16.206;2022-12-17T08:19:31;0.50;99.90
33811;DHT22;20119;48.334;16.206;2022-12-17T08:32:38;0.70;99.90
33811;DHT22;20119;48.334;16.206;2022-12-17T08:35:22;0.60;99.90
33811;DHT22;20119;48.334;16.206;2022-12-17T08:38:07;0.70;99.90
33811;DHT22;20119;48.334;16.206;2022-12-17T08:40:51;0.70;99.90
33811;DHT22;20119;48.334;16.206;2022-12-17T08:43:35;0.70;99.90
33811;DHT22;20119;48.334;16.206;2022-12-17T08:46:19;0.80;99.90
33811;DHT22;20119;48.334;16.206;2022-12-17T08:49:05;0.80;99.90
33811;DHT22;20119;48.334;16.206;2022-12-17T08:51:49;0.80;99.90
33811;DHT22;20119;48.334;16.206;2022-12-17T08:54:34;0.80;99.90
33811;DHT22;20119;48.334;16.206;2022-12-17T08:57:18;0.70;99.90
33811;DHT22;20119;48.334;16.206;2022-12-17T09:00:03;0.80;99.90
33811;DHT22;20119;48.334;16.206;2022-12-17T09:02:47;0.90;99.90
33811;DHT22;20119;48.334;16.206;2022-12-17T09:13:19;0.90;99.90
33811;DHT22;20119;48.334;16.206;2022-12-17T09:16:00;0.90;99.90
33811;DHT22;20119;48.334;16.206;2022-12-17T09:18:45;1.00;99.90
33811;DHT22;20119;48.334;16.206;2022-12-17T09:21:30;1.00;99.90
33811;DHT22;20119;48.334;16.206;2022-12-17T09:29:27;0.90;99.90
33811;DHT22;20119;48.334;16.206;2022-12-17T09:32:11;1.00;99.90
33811;DHT22;20119;48.334;16.206;2022-12-17T09:34:57;0.90;99.90
33811;DHT22;20119;48.334;16.206;2022-12-17T09:37:41;0.90;99.90
33811;DHT22;20119;48.334;16.206;2022-12-17T09:45:43;1.00;99.90
33811;DHT22;20119;48.334;16.206;2022-12-17T09:48:34;0.90;99.90
33811;DHT22;20119;48.334;16.206;2022-12-17T09:51:22;0.90;99.90
33811;DHT22;20119;48.334;16.206;2022-12-17T09:54:05;0.80;99.90
33811;DHT22;20119;48.334;16.206;2022-12-17T09:56:55;0.90;99.90
33811;DHT22;20119;48.334;16.206;2022-12-17T09:59:40;1.00;99.90
33811;DHT22;20119;48.334;16.206;2022-12-17T10:02:28;0.90;99.90
33811;DHT22;20119;48.334;16.206;2022-12-17T10:05:19;0.80;99.90
33811;DHT22;20119;48.334;16.206;2022-12-17T10:08:05;0.90;99.90
33811;DHT22;20119;48.334;16.206;2022-12-17T10:10:51;0.90;99.90
33811;DHT22;20119;48.334;16.206;2022-12-17T10:13:39;0.90;99.90
33811;DHT22;20119;48.334;16.206;2022-12-17T10:16:44;0.90;99.90
33811;DHT22;20119;48.334;16.206;2022-12-17T10:22:08;1.10;99.90
33811;DHT22;20119;48.334;16.206;2022-12-17T10:30:04;1.10;99.90
33811;DHT22;20119;48.334;16.206;2022-12-17T10:32:57;1.20;99.90
33811;DHT22;20119;48.334;16.206;2022-12-17T10:35:41;1.40;99.90
33811;DHT22;20119;48.334;16.206;2022-12-17T10:38:41;1.50;99.90
33811;DHT22;20119;48.334;16.206;2022-12-17T10:41:27;1.40;99.90
33811;DHT22;20119;48.334;16.206;2022-12-17T10:44:23;1.30;99.90
33811;DHT22;20119;48.334;16.206;2022-12-17T10:47:13;1.50;99.90
33811;DHT22;20119;48.334;16.206;2022-12-17T10:55:21;1.50;99.90
33811;DHT22;20119;48.334;16.206;2022-12-17T11:00:58;1.80;99.90
33811;DHT22;20119;48.334;16.206;2022-12-17T11:03:48;1.50;99.90
33811;DHT22;20119;48.334;16.206;2022-12-17T11:06:34;1.50;99.90
33811;DHT22;20119;48.334;16.206;2022-12-17T11:09:38;1.50;99.90
33811;DHT22;20119;48.334;16.206;2022-12-17T11:12:33;1.60;99.90
33811;DHT22;20119;48.334;16.206;2022-12-17T11:17:56;1.40;99.90
33811;DHT22;20119;48.334;16.206;2022-12-17T11:20:46;1.30;99.90
33811;DHT22;20119;48.334;16.206;2022-12-17T11:23:32;1.40;99.90
33811;DHT22;20119;48.334;16.206;2022-12-17T11:26:17;1.60;99.90
33811;DHT22;20119;48.334;16.206;2022-12-17T11:31:49;1.70;99.90
33811;DHT22;20119;48.334;16.206;2022-12-17T11:34:51;1.70;99.90
33811;DHT22;20119;48.334;16.206;2022-12-17T11:37:46;1.70;99.90
33811;DHT22;20119;48.334;16.206;2022-12-17T11:43:12;1.60;99.90
33811;DHT22;20119;48.334;16.206;2022-12-17T11:46:08;1.60;99.90
33811;DHT22;20119;48.334;16.206;2022-12-17T11:49:03;1.70;99.90
33811;DHT22;20119;48.334;16.206;2022-12-17T11:51:54;1.60;99.90
33811;DHT22;20119;48.334;16.206;2022-12-17T11:54:50;1.60;99.90
33811;DHT22;20119;48.334;16.206;2022-12-17T11:57:41;1.40;99.90
33811;DHT22;20119;48.334;16.206;2022-12-17T12:00:33;1.40;99.90
33811;DHT22;20119;48.334;16.206;2022-12-17T12:03:29;1.40;99.90
33811;DHT22;20119;48.334;16.206;2022-12-17T12:06:24;1.40;99.90
33811;DHT22;20119;48.334;16.206;2022-12-17T12:09:17;1.40;99.90
33811;DHT22;20119;48.334;16.206;2022-12-17T12:12:09;1.60;99.90
33811;DHT22;20119;48.334;16.206;2022-12-17T12:17:42;1.50;99.90
33811;DHT22;20119;48.334;16.206;2022-12-17T12:20:48;1.50;99.90
33811;DHT22;20119;48.334;16.206;2022-12-17T12:23:44;1.60;99.90
33811;DHT22;20119;48.334;16.206;2022-12-17T12:29:27;1.60;99.90
33811;DHT22;20119;48.334;16.206;2022-12-17T12:32:15;1.60;99.90
33811;DHT22;20119;48.334;16.206;2022-12-17T12:35:03;1.70;99.90
33811;DHT22;20119;48.334;16.206;2022-12-17T12:37:48;1.80;99.90
33811;DHT22;20119;48.334;16.206;2022-12-17T12:40:38;1.70;99.90
33811;DHT22;20119;48.334;16.206;2022-12-17T12:43:26;1.50;99.90
33811;DHT22;20119;48.334;16.206;2022-12-17T12:46:16;1.60;99.90
33811;DHT22;20119;48.334;16.206;2022-12-17T12:49:07;1.50;99.90
33811;DHT22;20119;48.334;16.206;2022-12-17T12:51:54;1.50;99.90
33811;DHT22;20119;48.334;16.206;2022-12-17T12:54:51;1.60;99.90
33811;DHT22;20119;48.334;16.206;2022-12-17T12:57:35;1.50;99.90
33811;DHT22;20119;48.334;16.206;2022-12-17T13:00:33;1.50;99.90
33811;DHT22;20119;48.334;16.206;2022-12-17T13:03:28;1.50;99.90
33811;DHT22;20119;48.334;16.206;2022-12-17T13:06:36;1.60;99.90
33811;DHT22;20119;48.334;16.206;2022-12-17T13:09:04;1.40;99.90
33811;DHT22;20119;48.334;16.206;2022-12-17T13:11:35;1.50;99.90
33811;DHT22;20119;48.334;16.206;2022-12-17T13:14:05;1.40;99.90
33811;DHT22;20119;48.334;16.206;2022-12-17T13:16:47;1.30;99.90
33811;DHT22;20119;48.334;16.206;2022-12-17T13:19:20;1.40;99.90
33811;DHT22;20119;48.334;16.206;2022-12-17T13:21:47;1.30;99.90
33811;DHT22;20119;48.334;16.206;2022-12-17T13:24:25;1.30;99.90
33811;DHT22;20119;48.334;16.206;2022-12-17T13:26:53;1.30;99.90
33811;DHT22;20119;48.334;16.206;2022-12-17T13:29:27;1.30;99.90
33811;DHT22;20119;48.334;16.206;2022-12-17T13:32:10;1.30;99.90
33811;DHT22;20119;48.334;16.206;2022-12-17T13:34:55;1.40;99.90
33811;DHT22;20119;48.334;16.206;2022-12-17T13:37:31;1.30;99.90
33811;DHT22;20119;48.334;16.206;2022-12-17T13:40:17;1.40;99.90
33811;DHT22;20119;48.334;16.206;2022-12-17T13:42:45;1.30;99.90
33811;DHT22;20119;48.334;16.206;2022-12-17T13:45:17;1.40;99.90
33811;DHT22;20119;48.334;16.206;2022-12-17T13:47:52;1.40;99.90
33811;DHT22;20119;48.334;16.206;2022-12-17T13:50:21;1.50;99.90
33811;DHT22;20119;48.334;16.206;2022-12-17T13:52:48;1.50;99.90
33811;DHT22;20119;48.334;16.206;2022-12-17T13:55:20;1.30;99.90
33811;DHT22;20119;48.334;16.206;2022-12-17T13:57:49;1.40;99.90
33811;DHT22;20119;48.334;16.206;2022-12-17T14:00:22;1.30;99.90
33811;DHT22;20119;48.334;16.206;2022-12-17T14:13:13;1.30;99.90
33811;DHT22;20119;48.334;16.206;2022-12-17T14:15:47;1.20;99.90
33811;DHT22;20119;48.334;16.206;2022-12-17T14:26:00;1.20;99.90
33811;DHT22;20119;48.334;16.206;2022-12-17T14:28:30;1.20;99.90
33811;DHT22;20119;48.334;16.206;2022-12-17T14:31:05;1.20;99.90
33811;DHT22;20119;48.334;16.206;2022-12-17T14:33:34;1.20;99.90
33811;DHT22;20119;48.334;16.206;2022-12-17T14:51:36;1.00;99.90
33811;DHT22;20119;48.334;16.206;2022-12-17T14:54:19;1.10;99.90
33811;DHT22;20119;48.334;16.206;2022-12-17T14:56:48;1.10;99.90
33811;DHT22;20119;48.334;16.206;2022-12-17T14:59:23;1.10;99.90
33811;DHT22;20119;48.334;16.206;2022-12-17T15:01:50;1.10;99.90
33811;DHT22;20119;48.334;16.206;2022-12-17T15:04:18;1.10;99.90
33811;DHT22;20119;48.334;16.206;2022-12-17T15:06:47;1.10;99.90
33811;DHT22;20119;48.334;16.206;2022-12-17T15:09:17;1.10;99.90
33811;DHT22;20119;48.334;16.206;2022-12-17T15:24:42;0.80;99.90
33811;DHT22;20119;48.334;16.206;2022-12-17T15:27:11;0.80;99.90
33811;DHT22;20119;48.334;16.206;2022-12-17T15:29:39;0.70;99.90
33811;DHT22;20119;48.334;16.206;2022-12-17T15:32:06;0.80;99.90
33811;DHT22;20119;48.334;16.206;2022-12-17T15:34:33;0.80;99.90
33811;DHT22;20119;48.334;16.206;2022-12-17T15:37:00;0.80;99.90
33811;DHT22;20119;48.334;16.206;2022-12-17T15:39:27;0.70;99.90
33811;DHT22;20119;48.334;16.206;2022-12-17T15:47:07;0.80;99.90
33811;DHT22;20119;48.334;16.206;2022-12-17T15:49:33;0.90;99.90
33811;DHT22;20119;48.334;16.206;2022-12-17T15:52:00;0.70;99.90
33811;DHT22;20119;48.334;16.206;2022-12-17T15:54:29;0.80;99.90
33811;DHT22;20119;48.334;16.206;2022-12-17T16:01:59;0.70;99.90
33811;DHT22;20119;48.334;16.206;2022-12-17T16:04:27;0.70;99.90
33811;DHT22;20119;48.334;16.206;2022-12-17T16:06:54;0.80;99.90
33811;DHT22;20119;48.334;16.206;2022-12-17T16:09:21;0.70;99.90
33811;DHT22;20119;48.334;16.206;2022-12-17T16:11:52;0.70;99.90
33811;DHT22;20119;48.334;16.206;2022-12-17T16:19:31;0.70;99.90
33811;DHT22;20119;48.334;16.206;2022-12-17T16:21:58;0.70;99.90
33811;DHT22;20119;48.334;16.206;2022-12-17T16:24:25;0.80;99.90
33811;DHT22;20119;48.334;16.206;2022-12-17T16:26:52;0.80;99.90
33811;DHT22;20119;48.334;16.206;2022-12-17T16:29:19;0.80;99.90
33811;DHT22;20119;48.334;16.206;2022-12-17T16:31:47;0.80;99.90
33811;DHT22;20119;48.334;16.206;2022-12-17T16:34:14;0.80;99.90
33811;DHT22;20119;48.334;16.206;2022-12-17T16:36:43;0.60;99.90
33811;DHT22;20119;48.334;16.206;2022-12-17T16:41:45;0.60;99.90
33811;DHT22;20119;48.334;16.206;2022-12-17T16:54:35;0.60;99.90
33811;DHT22;20119;48.334;16.206;2022-12-17T16:57:02;0.60;99.90
33811;DHT22;20119;48.334;16.206;2022-12-17T16:59:29;0.60;99.90
33811;DHT22;20119;48.334;16.206;2022-12-17T17:01:56;0.50;99.90
33811;DHT22;20119;48.334;16.206;2022-12-17T17:04:24;0.60;99.90
33811;DHT22;20119;48.334;16.206;2022-12-17T17:06:52;0.60;99.90
33811;DHT22;20119;48.334;16.206;2022-12-17T17:09:20;0.60;99.90
33811;DHT22;20119;48.334;16.206;2022-12-17T17:11:48;0.60;99.90
33811;DHT22;20119;48.334;16.206;2022-12-17T17:16:51;0.60;99.90
33811;DHT22;20119;48.334;16.206;2022-12-17T17:19:18;0.70;99.90
33811;DHT22;20119;48.334;16.206;2022-12-17T17:26:57;0.70;99.90
33811;DHT22;20119;48.334;16.206;2022-12-17T17:29:26;0.70;99.90
33811;DHT22;20119;48.334;16.206;2022-12-17T17:39:39;0.70;99.90
33811;DHT22;20119;48.334;16.206;2022-12-17T17:42:08;0.50;99.90
33811;DHT22;20119;48.334;16.206;2022-12-17T17:44:35;0.60;99.90
33811;DHT22;20119;48.334;16.206;2022-12-17T17:47:03;0.60;99.90
33811;DHT22;20119;48.334;16.206;2022-12-17T17:49:32;0.50;99.90
33811;DHT22;20119;48.334;16.206;2022-12-17T17:51:59;0.50;99.90
33811;DHT22;20119;48.334;16.206;2022-12-17T17:54:26;0.50;99.90
33811;DHT22;20119;48.334;16.206;2022-12-17T17:56:53;0.50;99.90
33811;DHT22;20119;48.334;16.206;2022-12-17T17:59:22;0.50;99.90
33811;DHT22;20119;48.334;16.206;2022-12-17T18:01:50;0.40;99.90
33811;DHT22;20119;48.334;16.206;2022-12-17T18:06:52;0.40;99.90
33811;DHT22;20119;48.334;16.206;2022-12-17T18:09:19;0.40;99.90
33811;DHT22;20119;48.334;16.206;2022-12-17T18:11:46;0.30;99.90
33811;DHT22;20119;48.334;16.206;2022-12-17T18:14:13;0.30;99.90
33811;DHT22;20119;48.334;16.206;2022-12-17T18:16:42;0.40;99.90
33811;DHT22;20119;48.334;16.206;2022-12-17T18:21:45;0.30;99.90
33811;DHT22;20119;48.334;16.206;2022-12-17T18:24:17;0.40;99.90
33811;DHT22;20119;48.334;16.206;2022-12-17T18:26:46;0.50;99.90
33811;DHT22;20119;48.334;16.206;2022-12-17T18:34:25;0.30;99.90
33811;DHT22;20119;48.334;16.206;2022-12-17T18:36:52;0.30;99.90
33811;DHT22;20119;48.334;16.206;2022-12-17T18:39:21;0.30;99.90
33811;DHT22;20119;48.334;16.206;2022-12-17T18:49:33;0.30;99.90
33811;DHT22;20119;48.334;16.206;2022-12-17T18:52:00;0.20;99.90
33811;DHT22;20119;48.334;16.206;2022-12-17T18:54:29;0.30;99.90
33811;DHT22;20119;48.334;16.206;2022-12-17T18:56:57;0.30;99.90
33811;DHT22;20119;48.334;16.206;2022-12-17T19:05:03;0.20;99.90
33811;DHT22;20119;48.334;16.206;2022-12-17T19:07:30;0.20;99.90
33811;DHT22;20119;48.334;16.206;2022-12-17T19:12:32;0.20;99.90
33811;DHT22;20119;48.334;16.206;2022-12-17T19:15:00;0.20;99.90
33811;DHT22;20119;48.334;16.206;2022-12-17T19:17:27;0.30;99.90
33811;DHT22;20119;48.334;16.206;2022-12-17T19:19:54;0.30;99.90
33811;DHT22;20119;48.334;16.206;2022-12-17T19:22:22;0.20;99.90
33811;DHT22;20119;48.334;16.206;2022-12-17T19:27:24;0.20;99.90
33811;DHT22;20119;48.334;16.206;2022-12-17T19:29:53;0.20;99.90
33811;DHT22;20119;48.334;16.206;2022-12-17T19:32:21;0.20;99.90
33811;DHT22;20119;48.334;16.206;2022-12-17T19:34:49;0.20;99.90
33811;DHT22;20119;48.334;16.206;2022-12-17T19:37:16;0.20;99.90
33811;DHT22;20119;48.334;16.206;2022-12-17T19:39:44;0.20;99.90
33811;DHT22;20119;48.334;16.206;2022-12-17T19:53:02;0.20;99.90
33811;DHT22;20119;48.334;16.206;2022-12-17T19:55:29;0.20;99.90
33811;DHT22;20119;48.334;16.206;2022-12-17T19:57:55;0.20;99.90
33811;DHT22;20119;48.334;16.206;2022-12-17T20:00:22;0.20;99.90
33811;DHT22;20119;48.334;16.206;2022-12-17T20:08:01;0.20;99.90
33811;DHT22;20119;48.334;16.206;2022-12-17T20:10:29;0.20;99.90
33811;DHT22;20119;48.334;16.206;2022-12-17T20:12:58;0.20;99.90
33811;DHT22;20119;48.334;16.206;2022-12-17T20:15:25;0.20;99.90
33811;DHT22;20119;48.334;16.206;2022-12-17T20:17:52;0.10;99.90
33811;DHT22;20119;48.334;16.206;2022-12-17T20:20:19;0.20;99.90
33811;DHT22;20119;48.334;16.206;2022-12-17T20:22:45;0.20;99.90
33811;DHT22;20119;48.334;16.206;2022-12-17T20:25:14;0.20;99.90
33811;DHT22;20119;48.334;16.206;2022-12-17T20:27:41;0.10;99.90
33811;DHT22;20119;48.334;16.206;2022-12-17T20:30:09;0.20;99.90
33811;DHT22;20119;48.334;16.206;2022-12-17T20:32:36;0.20;99.90
33811;DHT22;20119;48.334;16.206;2022-12-17T20:35:03;0.30;99.90
33811;DHT22;20119;48.334;16.206;2022-12-17T20:53:04;0.20;99.90
33811;DHT22;20119;48.334;16.206;2022-12-17T20:55:31;0.20;99.90
33811;DHT22;20119;48.334;16.206;2022-12-17T20:57:58;0.10;99.90
33811;DHT22;20119;48.334;16.206;2022-12-17T21:00:30;0.20;99.90
33811;DHT22;20119;48.334;16.206;2022-12-17T21:08:08;0.10;99.90
33811;DHT22;20119;48.334;16.206;2022-12-17T21:10:35;0.10;99.90
33811;DHT22;20119;48.334;16.206;2022-12-17T21:13:02;0.20;99.90
33811;DHT22;20119;48.334;16.206;2022-12-17T21:15:56;0.30;99.90
33811;DHT22;20119;48.334;16.206;2022-12-17T21:18:23;0.20;99.90
33811;DHT22;20119;48.334;16.206;2022-12-17T21:20:55;0.20;99.90
33811;DHT22;20119;48.334;16.206;2022-12-17T21:23:24;0.10;99.90
33811;DHT22;20119;48.334;16.206;2022-12-17T21:28:26;0.00;99.90
33811;DHT22;20119;48.334;16.206;2022-12-17T21:30:53;0.00;99.90
33811;DHT22;20119;48.334;16.206;2022-12-17T21:33:21;0.10;99.90
33811;DHT22;20119;48.334;16.206;2022-12-17T21:43:35;0.00;99.90
33811;DHT22;20119;48.334;16.206;2022-12-17T21:46:03;-0.10;99.90
33811;DHT22;20119;48.334;16.206;2022-12-17T21:48:30;-0.10;99.90
33811;DHT22;20119;48.334;16.206;2022-12-17T21:53:33;-0.10;99.90
33811;DHT22;20119;48.334;16.206;2022-12-17T21:58:37;-0.20;99.90
33811;DHT22;20119;48.334;16.206;2022-12-17T22:06:16;-0.30;99.90
33811;DHT22;20119;48.334;16.206;2022-12-17T22:08:44;-0.30;99.90
33811;DHT22;20119;48.334;16.206;2022-12-17T22:11:14;-0.40;99.90
33811;DHT22;20119;48.334;16.206;2022-12-17T22:13:43;-0.40;99.90
33811;DHT22;20119;48.334;16.206;2022-12-17T22:16:34;-0.40;99.90
33811;DHT22;20119;48.334;16.206;2022-12-17T22:19:02;-0.40;99.90
33811;DHT22;20119;48.334;16.206;2022-12-17T22:21:32;-0.50;99.90
33811;DHT22;20119;48.334;16.206;2022-12-17T22:23:59;-0.60;99.90
33811;DHT22;20119;48.334;16.206;2022-12-17T22:26:27;-0.60;99.90
33811;DHT22;20119;48.334;16.206;2022-12-17T22:28:55;-0.50;99.90
33811;DHT22;20119;48.334;16.206;2022-12-17T22:31:22;-0.50;99.90
33811;DHT22;20119;48.334;16.206;2022-12-17T22:34:10;-0.60;99.90
33811;DHT22;20119;48.334;16.206;2022-12-17T22:36:37;-0.70;99.90
33811;DHT22;20119;48.334;16.206;2022-12-17T22:39:07;-0.80;99.90
33811;DHT22;20119;48.334;16.206;2022-12-17T22:41:34;-0.80;99.90
33811;DHT22;20119;48.334;16.206;2022-12-17T22:44:20;-0.80;99.90
33811;DHT22;20119;48.334;16.206;2022-12-17T22:46:48;-0.90;99.90
33811;DHT22;20119;48.334;16.206;2022-12-17T22:49:15;-0.90;99.90
33811;DHT22;20119;48.334;16.206;2022-12-17T22:51:42;-0.90;99.90
33811;DHT22;20119;48.334;16.206;2022-12-17T22:54:12;-0.90;99.90
33811;DHT22;20119;48.334;16.206;2022-12-17T23:01:51;-1.10;99.90